• Join FlightAware (Why Join?)
  • Login
  • US Flag 
11:23AM EDT


 

Airport Tracker/Info


-or-


 

Live Flight TrackerFlight Track Log ✈ FLG3795 ✈ 29-Jun-2013 ✈ KATL - KFWA

Flight Track Log - Related Links

Times and Time Zones

All times are in EDT time to prevent confusion due to time zone crossing. See the FLG3795 flight status page for this flight to view local times or setup timezone preferences in your user account.

Time Position Orientation Groundspeed Altitude Reporting Facility
EDT Latitude Longitude Course Direction KTS MPH feet Rate Location/Type
06:31PM 33.6333 -84.4667 53° Northeast 168 193 2,600  Level Atlanta TRACON
06:32PM 33.6167 -84.5333 253° West 249 287 3,900 2,220 Climbing Atlanta TRACON
06:33PM 33.5500 -84.5833 212° Southwest 284 327 7,100 2,460 Climbing Atlanta TRACON
06:34PM 33.7238 -84.0216 54° Northeast  Level FlightAware Approximate
06:34PM 33.4833 -84.5833 180° South 302 348 8,900  Level Atlanta TRACON
06:35PM 33.7905 -83.9104 54° Northeast  Level FlightAware Approximate
06:35PM 33.4533 -84.4769 109° East 338 389 10,800  Level Atlanta Center
06:36PM 33.8572 -83.7992 54° Northeast  Level FlightAware Approximate
06:36PM 33.4536 -84.3625 90° East 350 403 12,100  Level Atlanta Center
06:37PM 33.9306 -83.6943 53° Northeast  Level FlightAware Approximate
06:37PM 33.4894 -84.2531 69° East 350 403 13,200  Level Atlanta Center
06:38PM 33.5894 -84.2108 19° North 333 383 14,700 1,620 Climbing Atlanta Center
06:39PM 33.6856 -84.1836 13° North 331 381 16,500 1,140 Climbing Atlanta Center
06:40PM 33.7608 -84.0989 43° Northeast 364 419 17,000 240 Climbing Atlanta Center
06:41PM 33.8131 -83.9764 63° Northeast 379 436 17,000 300 Level Atlanta Center
06:42PM 33.8650 -83.8586 62° Northeast 398 458 17,600 960 Climbing Atlanta Center
06:43PM 33.9169 -83.7383 62° Northeast 398 458 19,000 1,140 Climbing Atlanta Center
06:44PM 33.9836 -83.6306 53° Northeast 399 459 19,900 960 Climbing Atlanta Center
06:45PM 34.0500 -83.5222 53° Northeast 399 459 21,000 540 Climbing Atlanta Center
06:46PM 34.1267 -83.4014 53° Northeast 405 466 21,000 420 Level Atlanta Center
06:47PM 34.2011 -83.2878 52° Northeast 419 482 21,900 900 Climbing Atlanta Center
06:48PM 34.2692 -83.1742 54° Northeast 424 488 22,900 600 Climbing Atlanta Center
06:49PM 34.3414 -83.0575 53° Northeast 418 481 23,200 360 Climbing Atlanta Center
06:50PM 34.4133 -82.9383 54° Northeast 429 494 23,700 480 Climbing Atlanta Center
06:51PM 34.4894 -82.8189 52° Northeast 442 509 24,200 480 Climbing Atlanta Center
06:52PM 34.5653 -82.6969 53° Northeast 447 514 24,700 480 Climbing Atlanta Center
06:53PM 34.6392 -82.5794 53° Northeast 447 514 25,200 480 Climbing Atlanta Center
06:54PM 34.7128 -82.4544 54° Northeast 442 509 25,700 480 Climbing Atlanta Center
06:55PM 34.7883 -82.3342 53° Northeast 442 509 26,200 480 Climbing Atlanta Center
06:56PM 34.8639 -82.2086 54° Northeast 447 514 26,700 480 Climbing Atlanta Center
06:57PM 34.9308 -82.0981 54° Northeast 447 514 27,200 480 Climbing Atlanta Center
06:58PM 35.0083 -81.9772 52° Northeast 452 520 27,700 480 Climbing Atlanta Center
06:59PM 35.1350 -81.9383 14° North 413 475 28,200 420 Climbing Atlanta Center
07:00PM 35.2519 -81.9558 353° North 409 471 28,600 360 Climbing Atlanta Center
07:01PM 35.3692 -81.9706 354° North 414 476 29,000 420 Climbing Atlanta Center
07:02PM 35.4861 -81.9856 354° North 428 493 29,500 420 Climbing Atlanta Center
07:03PM 35.6053 -82.0006 354° North 428 493 29,900 420 Climbing Atlanta Center
07:04PM 35.7267 -82.0128 355° North 428 493 30,400 300 Climbing Atlanta Center
07:07PM 35.9636 -82.0400 355° North 423 487 31,000 180 Climbing Indianapolis Center
07:07PM 36.0672 -82.0556 353° North 427 491 31,000  Level Atlanta Center
07:08PM 36.1928 -82.0706 354° North 432 497 31,000  Level Atlanta Center
07:09PM 36.3139 -82.0831 355° North 439 505 31,000  Level Atlanta Center
07:12PM 36.6067 -82.1192 354° North 456 525 31,000  Level Indianapolis Center
07:13PM 36.7333 -82.1350 354° North 458 527 31,000  Level Indianapolis Center
07:14PM 36.8544 -82.1733 346° North 450 518 31,000  Level Indianapolis Center
07:15PM 36.9692 -82.2267 340° North 441 507 31,000  Level Indianapolis Center
07:16PM 37.0856 -82.2747 342° North 441 507 31,000  Level Indianapolis Center
07:17PM 37.2011 -82.3194 343° North 437 503 31,000  Level Indianapolis Center
07:18PM 37.3169 -82.3669 342° North 438 504 31,000  Level Indianapolis Center
07:19PM 37.4519 -82.4203 343° North 436 502 31,000  Level Indianapolis Center
07:20PM 37.5503 -82.4994 327° Northwest 425 489 31,000  Level Indianapolis Center
07:21PM 37.6511 -82.5736 330° Northwest 420 483 31,000  Level Indianapolis Center
07:22PM 37.7514 -82.6506 329° Northwest 422 486 31,000  Level Indianapolis Center
07:23PM 37.8536 -82.7247 330° Northwest 424 488 31,000  Level Indianapolis Center
07:24PM 37.9556 -82.8006 330° Northwest 424 488 31,000  Level Indianapolis Center
07:25PM 38.0572 -82.8778 329° Northwest 426 490 31,000  Level Indianapolis Center
07:26PM 38.1778 -82.9686 329° Northwest 432 497 31,000  Level Indianapolis Center
07:27PM 38.2797 -83.0453 329° Northwest 429 494 31,000  Level Indianapolis Center
07:28PM 38.3928 -83.1061 337° Northwest 444 511 31,000 -540 Level Indianapolis Center
07:29PM 38.5097 -83.1583 341° North 444 511 29,900 -1,440 Descending Indianapolis Center
07:30PM 38.6264 -83.2106 341° North 443 510 28,100 -1,920 Descending Indianapolis Center
07:31PM 38.7331 -83.2617 340° North 430 495 26,100 -1,980 Descending Indianapolis Center
07:32PM 38.8419 -83.3183 338° Northwest 421 484 24,100 -1,080 Descending Indianapolis Center
07:33PM 38.9414 -83.3775 335° Northwest 396 456 24,000 -60 Descending Indianapolis Center
07:34PM 39.0256 -83.4522 325° Northwest 369 425 24,000  Level Indianapolis Center
07:35PM 39.1311 -83.5414 327° Northwest 381 438 24,000  Level Indianapolis Center
07:36PM 39.2244 -83.6225 326° Northwest 394 453 24,000 -60 Level Indianapolis Center
07:37PM 39.3208 -83.7056 326° Northwest 408 470 23,900  Descending Indianapolis Center
07:38PM 39.4153 -83.7886 326° Northwest 407 468 24,000 -600 Climbing Indianapolis Center
07:39PM 39.5278 -83.8867 326° Northwest 410 472 22,600 -1,080 Descending Indianapolis Center
07:40PM 39.6269 -83.9739 326° Northwest 419 482 21,900 -360 Descending Indianapolis Center
07:42PM 39.7194 -84.0558 326° Northwest 403 464 21,900 -540 Level Indianapolis Center
07:43PM 39.8100 -84.1356 326° Northwest 391 450 20,900 -1,020 Descending Indianapolis Center
07:44PM 39.9022 -84.2178 326° Northwest 395 455 19,900 -1,080 Descending Indianapolis Center
07:45PM 39.9944 -84.3000 326° Northwest 396 456 18,800 -1,140 Descending Indianapolis Center
07:46PM 40.0861 -84.3806 326° Northwest 394 453 17,600 -1,080 Descending Indianapolis Center
07:47PM 40.1769 -84.4619 326° Northwest 390 449 16,600 -1,020 Descending Indianapolis Center
07:48PM 40.2647 -84.5411 325° Northwest 383 441 15,600 -1,080 Descending Indianapolis Center
07:49PM 40.3508 -84.6200 325° Northwest 375 432 14,500 -1,320 Descending Indianapolis Center
07:50PM 40.4344 -84.6931 326° Northwest 362 417 13,000 -1,560 Descending Indianapolis Center
07:51PM 40.5128 -84.7608 327° Northwest 340 391 11,400 -1,620 Descending Indianapolis Center
07:52PM 40.5861 -84.8236 327° Northwest 320 368 9,800 -1,680 Descending Indianapolis Center
07:53PM 40.6531 -84.8814 327° Northwest 294 338 8,100 -1,680 Descending Indianapolis Center
07:54PM 40.7239 -84.9406 328° Northwest 288 331 6,400 -1,680 Descending Indianapolis Center
07:55PM 40.7869 -84.9942 327° Northwest 276 318 4,700 -1,500 Descending Indianapolis Center
07:56PM 40.8500 -85.0481 327° Northwest 266 306 3,300 -1,320 Descending Chicago Center